ASK593R LWSK-EPWA
Flight info
| Callsign | ASK593R |
|---|---|
| Flight time | 1h 38m |
| Altitude | 36000 |
| Route | RAXAD DCT VAGEN DCT PARAK DCT PITOK DCT ORTEB DCT KONZI DCT LOGDA |
| Aircraft | B738/M-SDE2E3FGHIRWXY/LB1 |
Departure
| Time | 2026-05-06 11:08 |
|---|---|
| Airport | Skopje International Airport (LWSK) |
Arrival
| Time | 2026-05-06 12:46 |
|---|---|
| Airport | Warsaw Chopin Airport (EPWA) |
| Time | Latitude | Longitude | Altitude | Speed | Heading |
|---|---|---|---|---|---|
| 2026-05-06 10:45 | 41.96032 | 21.62603 | 792 ft | 0 kts | 76° |
| 2026-05-06 11:00 | 41.96030 | 21.62593 | 792 ft | 3 kts | 79° |
| 2026-05-06 11:00 | 41.96028 | 21.62565 | 792 ft | 3 kts | 104° |
| 2026-05-06 11:00 | 41.96037 | 21.62542 | 792 ft | 3 kts | 140° |
| 2026-05-06 11:01 | 41.96052 | 21.62530 | 792 ft | 1 kts | 166° |
| 2026-05-06 11:03 | 41.96041 | 21.62531 | 792 ft | 4 kts | 180° |
| 2026-05-06 11:03 | 41.96017 | 21.62506 | 792 ft | 5 kts | 236° |
| 2026-05-06 11:03 | 41.96026 | 21.62466 | 790 ft | 6 kts | 321° |
| 2026-05-06 11:03 | 41.96081 | 21.62440 | 790 ft | 11 kts | 343° |
| 2026-05-06 11:04 | 41.96163 | 21.62410 | 790 ft | 12 kts | 348° |
| 2026-05-06 11:04 | 41.96246 | 21.62382 | 791 ft | 12 kts | 345° |
| 2026-05-06 11:04 | 41.96338 | 21.62349 | 791 ft | 17 kts | 345° |
| 2026-05-06 11:04 | 41.96463 | 21.62305 | 792 ft | 20 kts | 345° |
| 2026-05-06 11:05 | 41.96612 | 21.62252 | 792 ft | 23 kts | 345° |
| 2026-05-06 11:05 | 41.96765 | 21.62199 | 792 ft | 22 kts | 345° |
| 2026-05-06 11:05 | 41.96879 | 21.62148 | 792 ft | 16 kts | 324° |
| 2026-05-06 11:05 | 41.96948 | 21.62040 | 791 ft | 15 kts | 308° |
| 2026-05-06 11:06 | 41.97003 | 21.61942 | 789 ft | 11 kts | 294° |
| 2026-05-06 11:06 | 41.96997 | 21.61866 | 789 ft | 1 kts | 245° |
| 2026-05-06 11:06 | 41.96995 | 21.61860 | 789 ft | 1 kts | 239° |
| 2026-05-06 11:06 | 41.96981 | 21.61858 | 789 ft | 4 kts | 178° |
| 2026-05-06 11:07 | 41.96890 | 21.61891 | 789 ft | 33 kts | 165° |
| 2026-05-06 11:07 | 41.96434 | 21.62050 | 789 ft | 101 kts | 165° |
| 2026-05-06 11:07 | 41.95551 | 21.62356 | 789 ft | 158 kts | 165° |
| 2026-05-06 11:07 | 41.94420 | 21.62768 | 1263 ft | 172 kts | 163° |
| 2026-05-06 11:08 | 41.93303 | 21.63438 | 1932 ft | 180 kts | 143° |
| 2026-05-06 11:08 | 41.92448 | 21.64699 | 2557 ft | 191 kts | 115° |
| 2026-05-06 11:08 | 41.92284 | 21.66511 | 3035 ft | 205 kts | 75° |
| 2026-05-06 11:08 | 41.93035 | 21.68089 | 3630 ft | 202 kts | 36° |
| 2026-05-06 11:09 | 41.94247 | 21.68882 | 4446 ft | 189 kts | 22° |
| 2026-05-06 11:09 | 41.95465 | 21.69524 | 5055 ft | 193 kts | 22° |
| 2026-05-06 11:09 | 41.96784 | 21.70256 | 5244 ft | 215 kts | 23° |
| 2026-05-06 11:09 | 41.98193 | 21.71125 | 5383 ft | 234 kts | 27° |
| 2026-05-06 11:10 | 41.99667 | 21.72270 | 5522 ft | 255 kts | 33° |
| 2026-05-06 11:10 | 42.01166 | 21.73722 | 5705 ft | 276 kts | 39° |
| 2026-05-06 11:10 | 42.02634 | 21.75427 | 6300 ft | 281 kts | 43° |
| 2026-05-06 11:10 | 42.04033 | 21.77285 | 6971 ft | 284 kts | 46° |
| 2026-05-06 11:11 | 42.05376 | 21.79256 | 7639 ft | 288 kts | 49° |
| 2026-05-06 11:11 | 42.06681 | 21.81310 | 8353 ft | 289 kts | 51° |
| 2026-05-06 11:11 | 42.07956 | 21.83416 | 9061 ft | 292 kts | 52° |
| 2026-05-06 11:11 | 42.09222 | 21.85574 | 9775 ft | 295 kts | 52° |
| 2026-05-06 11:12 | 42.10474 | 21.87750 | 10336 ft | 303 kts | 53° |
| 2026-05-06 11:12 | 42.11821 | 21.90124 | 10506 ft | 326 kts | 53° |
| 2026-05-06 11:12 | 42.13236 | 21.92639 | 10674 ft | 347 kts | 53° |
| 2026-05-06 11:12 | 42.14732 | 21.95311 | 10855 ft | 366 kts | 53° |
| 2026-05-06 11:13 | 42.16269 | 21.98067 | 11239 ft | 377 kts | 53° |
| 2026-05-06 11:13 | 42.17875 | 22.00951 | 11856 ft | 381 kts | 53° |
| 2026-05-06 11:13 | 42.19447 | 22.03780 | 12541 ft | 383 kts | 53° |
| 2026-05-06 11:13 | 42.21072 | 22.06708 | 13194 ft | 387 kts | 52° |
| 2026-05-06 11:14 | 42.22671 | 22.09593 | 13861 ft | 391 kts | 52° |
| 2026-05-06 11:14 | 42.24304 | 22.12541 | 14496 ft | 394 kts | 52° |
| 2026-05-06 11:14 | 42.25954 | 22.15521 | 15101 ft | 398 kts | 52° |
| 2026-05-06 11:14 | 42.27626 | 22.18523 | 15732 ft | 401 kts | 50° |
| 2026-05-06 11:15 | 42.29698 | 22.21033 | 16299 ft | 402 kts | 28° |
| 2026-05-06 11:15 | 42.32297 | 22.22349 | 16991 ft | 399 kts | 9° |
| 2026-05-06 11:15 | 42.35055 | 22.22570 | 17644 ft | 398 kts | 352° |
| 2026-05-06 11:15 | 42.37756 | 22.21755 | 18245 ft | 399 kts | 342° |
| 2026-05-06 11:16 | 42.40430 | 22.20683 | 18756 ft | 403 kts | 341° |
| 2026-05-06 11:16 | 42.43127 | 22.19562 | 19257 ft | 406 kts | 341° |
| 2026-05-06 11:16 | 42.45838 | 22.18440 | 19773 ft | 409 kts | 342° |
| 2026-05-06 11:16 | 42.48566 | 22.17327 | 20322 ft | 410 kts | 342° |
| 2026-05-06 11:17 | 42.51308 | 22.16224 | 20890 ft | 412 kts | 342° |
| 2026-05-06 11:17 | 42.54065 | 22.15126 | 21416 ft | 414 kts | 342° |
| 2026-05-06 11:17 | 42.56840 | 22.14025 | 21915 ft | 417 kts | 342° |
| 2026-05-06 11:17 | 42.59631 | 22.12918 | 22391 ft | 419 kts | 342° |
| 2026-05-06 11:18 | 42.62444 | 22.11802 | 22810 ft | 423 kts | 342° |
| 2026-05-06 11:18 | 42.65284 | 22.10674 | 23229 ft | 427 kts | 342° |
| 2026-05-06 11:18 | 42.68141 | 22.09538 | 23695 ft | 428 kts | 342° |
| 2026-05-06 11:18 | 42.71001 | 22.08399 | 24101 ft | 430 kts | 342° |
| 2026-05-06 11:19 | 42.73851 | 22.07156 | 24485 ft | 431 kts | 338° |
| 2026-05-06 11:19 | 42.76660 | 22.05696 | 24867 ft | 432 kts | 336° |
| 2026-05-06 11:19 | 42.79453 | 22.04167 | 25241 ft | 434 kts | 336° |
| 2026-05-06 11:19 | 42.82251 | 22.02610 | 25610 ft | 436 kts | 336° |
| 2026-05-06 11:20 | 42.85064 | 22.01043 | 25956 ft | 438 kts | 336° |
| 2026-05-06 11:20 | 42.87895 | 21.99474 | 26270 ft | 440 kts | 336° |
| 2026-05-06 11:20 | 42.90741 | 21.97905 | 26640 ft | 442 kts | 336° |
| 2026-05-06 11:20 | 42.93597 | 21.96338 | 26995 ft | 443 kts | 336° |
| 2026-05-06 11:21 | 42.96466 | 21.94767 | 27312 ft | 445 kts | 336° |
| 2026-05-06 11:21 | 42.99342 | 21.93194 | 27630 ft | 447 kts | 336° |
| 2026-05-06 11:21 | 43.02235 | 21.91612 | 27932 ft | 449 kts | 336° |
| 2026-05-06 11:21 | 43.05140 | 21.90022 | 28212 ft | 451 kts | 336° |
| 2026-05-06 11:22 | 43.08059 | 21.88423 | 28518 ft | 453 kts | 336° |
| 2026-05-06 11:22 | 43.10982 | 21.86820 | 28975 ft | 450 kts | 336° |
| 2026-05-06 11:22 | 43.13880 | 21.85231 | 29516 ft | 447 kts | 336° |
| 2026-05-06 11:22 | 43.16714 | 21.83674 | 30013 ft | 444 kts | 335° |
| 2026-05-06 11:23 | 43.19583 | 21.82096 | 30390 ft | 443 kts | 335° |
| 2026-05-06 11:23 | 43.22442 | 21.80521 | 30728 ft | 443 kts | 335° |
| 2026-05-06 11:23 | 43.25296 | 21.78947 | 31081 ft | 441 kts | 335° |
| 2026-05-06 11:23 | 43.28139 | 21.77378 | 31468 ft | 439 kts | 335° |
| 2026-05-06 11:24 | 43.30969 | 21.75814 | 31849 ft | 438 kts | 335° |
| 2026-05-06 11:24 | 43.33789 | 21.74254 | 32200 ft | 436 kts | 335° |
| 2026-05-06 11:24 | 43.36601 | 21.72697 | 32545 ft | 435 kts | 335° |
| 2026-05-06 11:24 | 43.39402 | 21.71145 | 32913 ft | 433 kts | 335° |
| 2026-05-06 11:25 | 43.42192 | 21.69597 | 33266 ft | 432 kts | 335° |
| 2026-05-06 11:25 | 43.44976 | 21.68051 | 33575 ft | 431 kts | 335° |
| 2026-05-06 11:25 | 43.47755 | 21.66506 | 33915 ft | 430 kts | 335° |
| 2026-05-06 11:25 | 43.50521 | 21.64967 | 34268 ft | 428 kts | 335° |
| 2026-05-06 11:26 | 43.53273 | 21.63434 | 34575 ft | 426 kts | 335° |
| 2026-05-06 11:26 | 43.56021 | 21.61902 | 34795 ft | 426 kts | 335° |
| 2026-05-06 11:26 | 43.58773 | 21.60365 | 34989 ft | 427 kts | 335° |
| 2026-05-06 11:26 | 43.61532 | 21.58824 | 35174 ft | 428 kts | 335° |
| 2026-05-06 11:27 | 43.64299 | 21.57276 | 35330 ft | 430 kts | 335° |
| 2026-05-06 11:27 | 43.67069 | 21.55725 | 35595 ft | 428 kts | 335° |
| 2026-05-06 11:27 | 43.69823 | 21.54182 | 35906 ft | 426 kts | 335° |
| 2026-05-06 11:28 | 43.75344 | 21.51083 | 36008 ft | 431 kts | 335° |
| 2026-05-06 11:28 | 43.80882 | 21.47970 | 36005 ft | 427 kts | 335° |
| 2026-05-06 11:29 | 43.86367 | 21.44881 | 36003 ft | 425 kts | 335° |
| 2026-05-06 11:29 | 43.91829 | 21.41798 | 35988 ft | 423 kts | 334° |
| 2026-05-06 11:30 | 43.97275 | 21.38717 | 35997 ft | 423 kts | 334° |
| 2026-05-06 11:30 | 44.02722 | 21.35629 | 36003 ft | 423 kts | 334° |
| 2026-05-06 11:31 | 44.08184 | 21.32526 | 36004 ft | 425 kts | 334° |
| 2026-05-06 11:31 | 44.13668 | 21.29405 | 36000 ft | 427 kts | 334° |
| 2026-05-06 11:32 | 44.19177 | 21.26264 | 35994 ft | 429 kts | 334° |
| 2026-05-06 11:32 | 44.24669 | 21.23126 | 35999 ft | 430 kts | 334° |
| 2026-05-06 11:33 | 44.30216 | 21.19951 | 35990 ft | 432 kts | 334° |
| 2026-05-06 11:33 | 44.35779 | 21.16760 | 35989 ft | 433 kts | 334° |
| 2026-05-06 11:34 | 44.40448 | 21.14076 | 35996 ft | 433 kts | 334° |
| 2026-05-06 11:34 | 44.46016 | 21.10870 | 35983 ft | 433 kts | 334° |
| 2026-05-06 11:35 | 44.51540 | 21.07683 | 35979 ft | 432 kts | 334° |
| 2026-05-06 11:35 | 44.57089 | 21.04475 | 35986 ft | 431 kts | 334° |
| 2026-05-06 11:36 | 44.62626 | 21.01267 | 35985 ft | 430 kts | 334° |
| 2026-05-06 11:36 | 44.68156 | 20.98056 | 35983 ft | 430 kts | 334° |
| 2026-05-06 11:37 | 44.73677 | 20.94843 | 35982 ft | 429 kts | 334° |
| 2026-05-06 11:37 | 44.79194 | 20.91627 | 35985 ft | 429 kts | 333° |
| 2026-05-06 11:38 | 44.84705 | 20.88407 | 35987 ft | 429 kts | 333° |
| 2026-05-06 11:38 | 44.90217 | 20.85179 | 35982 ft | 429 kts | 333° |
| 2026-05-06 11:39 | 44.95731 | 20.81944 | 35987 ft | 430 kts | 333° |
| 2026-05-06 11:39 | 45.01258 | 20.78694 | 35985 ft | 430 kts | 333° |
| 2026-05-06 11:40 | 45.06788 | 20.75436 | 35987 ft | 431 kts | 333° |
| 2026-05-06 11:40 | 45.12327 | 20.72166 | 35979 ft | 432 kts | 333° |
| 2026-05-06 11:41 | 45.17875 | 20.68883 | 35981 ft | 432 kts | 333° |
| 2026-05-06 11:41 | 45.23428 | 20.65590 | 35981 ft | 433 kts | 333° |
| 2026-05-06 11:42 | 45.28988 | 20.62288 | 35997 ft | 433 kts | 333° |
| 2026-05-06 11:42 | 45.34553 | 20.58974 | 35986 ft | 434 kts | 333° |
| 2026-05-06 11:43 | 45.40121 | 20.55651 | 35979 ft | 434 kts | 332° |
| 2026-05-06 11:43 | 45.45691 | 20.52321 | 35978 ft | 434 kts | 332° |
| 2026-05-06 11:44 | 45.54045 | 20.47312 | 35987 ft | 434 kts | 332° |
| 2026-05-06 11:44 | 45.59617 | 20.43962 | 35969 ft | 435 kts | 332° |
| 2026-05-06 11:45 | 45.65187 | 20.40605 | 35974 ft | 435 kts | 332° |
| 2026-05-06 11:45 | 45.70759 | 20.37241 | 35970 ft | 435 kts | 332° |
| 2026-05-06 11:46 | 45.76331 | 20.33869 | 35982 ft | 435 kts | 332° |
| 2026-05-06 11:46 | 45.81911 | 20.30485 | 35969 ft | 435 kts | 332° |
| 2026-05-06 11:47 | 45.87454 | 20.27115 | 35966 ft | 436 kts | 332° |
| 2026-05-06 11:47 | 45.93039 | 20.23713 | 35970 ft | 436 kts | 332° |
| 2026-05-06 11:48 | 45.98622 | 20.20305 | 35965 ft | 436 kts | 332° |
| 2026-05-06 11:48 | 46.04212 | 20.16884 | 35970 ft | 437 kts | 332° |
| 2026-05-06 11:49 | 46.09814 | 20.13449 | 35963 ft | 438 kts | 332° |
| 2026-05-06 11:49 | 46.15561 | 20.10440 | 35956 ft | 446 kts | 343° |
| 2026-05-06 11:50 | 46.21823 | 20.09863 | 35982 ft | 458 kts | 359° |
| 2026-05-06 11:50 | 46.28191 | 20.10692 | 35970 ft | 461 kts | 0° |
| 2026-05-06 11:51 | 46.34574 | 20.11593 | 35966 ft | 461 kts | 0° |
| 2026-05-06 11:51 | 46.40832 | 20.12422 | 35964 ft | 462 kts | 360° |
| 2026-05-06 11:52 | 46.47240 | 20.13231 | 35961 ft | 462 kts | 360° |
| 2026-05-06 11:52 | 46.53654 | 20.14031 | 35958 ft | 463 kts | 360° |
| 2026-05-06 11:53 | 46.60031 | 20.14828 | 35950 ft | 463 kts | 360° |
| 2026-05-06 11:53 | 46.66160 | 20.15597 | 35960 ft | 463 kts | 360° |
| 2026-05-06 11:54 | 46.72577 | 20.16406 | 35946 ft | 463 kts | 360° |
| 2026-05-06 11:54 | 46.78994 | 20.17216 | 35939 ft | 462 kts | 360° |
| 2026-05-06 11:55 | 46.85368 | 20.18023 | 35946 ft | 462 kts | 0° |
| 2026-05-06 11:55 | 46.91389 | 20.18787 | 35937 ft | 461 kts | 0° |
| 2026-05-06 11:56 | 46.97786 | 20.19600 | 35934 ft | 461 kts | 0° |
| 2026-05-06 11:56 | 47.04183 | 20.20415 | 35928 ft | 461 kts | 0° |
| 2026-05-06 11:57 | 47.10573 | 20.21232 | 35925 ft | 461 kts | 0° |
| 2026-05-06 11:57 | 47.16911 | 20.22043 | 35940 ft | 461 kts | 0° |
| 2026-05-06 11:58 | 47.23308 | 20.22865 | 35945 ft | 461 kts | 0° |
| 2026-05-06 11:58 | 47.28928 | 20.23587 | 35938 ft | 462 kts | 0° |
| 2026-05-06 11:59 | 47.35332 | 20.24413 | 35933 ft | 463 kts | 0° |
| 2026-05-06 11:59 | 47.41495 | 20.25210 | 35928 ft | 463 kts | 0° |
| 2026-05-06 12:00 | 47.47923 | 20.26043 | 35927 ft | 464 kts | 0° |
| 2026-05-06 12:00 | 47.54363 | 20.26879 | 35932 ft | 465 kts | 1° |
| 2026-05-06 12:01 | 47.60814 | 20.27720 | 35925 ft | 466 kts | 1° |
| 2026-05-06 12:01 | 47.67256 | 20.28561 | 35922 ft | 466 kts | 1° |
| 2026-05-06 12:02 | 47.73671 | 20.29401 | 35933 ft | 466 kts | 1° |
| 2026-05-06 12:02 | 47.80130 | 20.30248 | 35925 ft | 466 kts | 1° |
| 2026-05-06 12:03 | 47.86627 | 20.31103 | 35925 ft | 465 kts | 1° |
| 2026-05-06 12:03 | 47.93025 | 20.31947 | 35936 ft | 464 kts | 1° |
| 2026-05-06 12:04 | 47.99458 | 20.32798 | 35932 ft | 464 kts | 1° |
| 2026-05-06 12:04 | 48.05743 | 20.33630 | 35935 ft | 464 kts | 1° |
| 2026-05-06 12:05 | 48.12168 | 20.34483 | 35920 ft | 464 kts | 1° |
| 2026-05-06 12:05 | 48.18544 | 20.35334 | 35920 ft | 464 kts | 1° |
| 2026-05-06 12:06 | 48.24972 | 20.36192 | 35925 ft | 464 kts | 1° |
| 2026-05-06 12:06 | 48.31309 | 20.37040 | 35933 ft | 464 kts | 1° |
| 2026-05-06 12:07 | 48.37735 | 20.37819 | 35932 ft | 463 kts | 360° |
| 2026-05-06 12:07 | 48.44094 | 20.38481 | 35922 ft | 464 kts | 360° |
| 2026-05-06 12:08 | 48.50534 | 20.39152 | 35928 ft | 464 kts | 360° |
| 2026-05-06 12:08 | 48.56884 | 20.39831 | 35925 ft | 464 kts | 0° |
| 2026-05-06 12:09 | 48.63339 | 20.40531 | 35924 ft | 465 kts | 0° |
| 2026-05-06 12:09 | 48.69802 | 20.41237 | 35926 ft | 466 kts | 0° |
| 2026-05-06 12:10 | 48.76265 | 20.41943 | 35923 ft | 466 kts | 0° |
| 2026-05-06 12:10 | 48.82725 | 20.42651 | 35934 ft | 466 kts | 0° |
| 2026-05-06 12:11 | 48.89185 | 20.43360 | 35918 ft | 466 kts | 0° |
| 2026-05-06 12:11 | 48.95478 | 20.44054 | 35914 ft | 466 kts | 0° |
| 2026-05-06 12:12 | 49.01947 | 20.44768 | 35910 ft | 466 kts | 0° |
| 2026-05-06 12:12 | 49.08217 | 20.45461 | 35913 ft | 466 kts | 1° |
| 2026-05-06 12:13 | 49.14676 | 20.46178 | 35904 ft | 466 kts | 1° |
| 2026-05-06 12:13 | 49.21140 | 20.46897 | 35903 ft | 465 kts | 0° |
| 2026-05-06 12:14 | 49.27597 | 20.47617 | 35878 ft | 465 kts | 1° |
| 2026-05-06 12:14 | 49.33984 | 20.48331 | 35875 ft | 465 kts | 0° |
| 2026-05-06 12:15 | 49.40439 | 20.49055 | 35892 ft | 465 kts | 0° |
| 2026-05-06 12:15 | 49.46600 | 20.49747 | 35866 ft | 466 kts | 0° |
| 2026-05-06 12:16 | 49.53064 | 20.50475 | 35865 ft | 465 kts | 1° |
| 2026-05-06 12:16 | 49.58921 | 20.51136 | 35863 ft | 465 kts | 1° |
| 2026-05-06 12:17 | 49.65379 | 20.51868 | 35857 ft | 465 kts | 1° |
| 2026-05-06 12:17 | 49.71633 | 20.52578 | 35843 ft | 466 kts | 1° |
| 2026-05-06 12:18 | 49.78096 | 20.53314 | 35841 ft | 466 kts | 1° |
| 2026-05-06 12:18 | 49.84371 | 20.54031 | 35840 ft | 466 kts | 1° |
| 2026-05-06 12:19 | 49.90848 | 20.54772 | 35836 ft | 467 kts | 1° |
| 2026-05-06 12:19 | 49.97333 | 20.55588 | 35196 ft | 474 kts | 4° |
| 2026-05-06 12:20 | 50.00596 | 20.56366 | 34594 ft | 472 kts | 7° |
| 2026-05-06 12:20 | 50.03845 | 20.57308 | 33859 ft | 476 kts | 8° |
| 2026-05-06 12:20 | 50.07102 | 20.58310 | 33132 ft | 477 kts | 8° |
| 2026-05-06 12:20 | 50.10351 | 20.59310 | 32415 ft | 477 kts | 8° |
| 2026-05-06 12:21 | 50.13566 | 20.60276 | 31731 ft | 476 kts | 8° |
| 2026-05-06 12:21 | 50.16825 | 20.61230 | 31018 ft | 476 kts | 7° |
| 2026-05-06 12:21 | 50.20003 | 20.62140 | 30329 ft | 477 kts | 7° |
| 2026-05-06 12:21 | 50.23226 | 20.63051 | 29816 ft | 473 kts | 6° |
| 2026-05-06 12:22 | 50.26286 | 20.63912 | 29242 ft | 469 kts | 6° |
| 2026-05-06 12:22 | 50.29454 | 20.64802 | 28729 ft | 463 kts | 7° |
| 2026-05-06 12:22 | 50.31943 | 20.65502 | 28319 ft | 459 kts | 7° |
| 2026-05-06 12:22 | 50.34775 | 20.66300 | 27858 ft | 454 kts | 7° |
| 2026-05-06 12:23 | 50.37802 | 20.67153 | 27359 ft | 450 kts | 7° |
| 2026-05-06 12:23 | 50.40870 | 20.68020 | 26847 ft | 446 kts | 7° |
| 2026-05-06 12:23 | 50.43678 | 20.68814 | 26394 ft | 442 kts | 7° |
| 2026-05-06 12:23 | 50.45678 | 20.69381 | 26060 ft | 440 kts | 7° |
| 2026-05-06 12:24 | 50.48421 | 20.70159 | 25602 ft | 438 kts | 7° |
| 2026-05-06 12:24 | 50.51206 | 20.70950 | 25150 ft | 435 kts | 7° |
| 2026-05-06 12:24 | 50.53961 | 20.71733 | 24703 ft | 432 kts | 7° |
| 2026-05-06 12:24 | 50.56549 | 20.72470 | 24283 ft | 430 kts | 8° |
| 2026-05-06 12:25 | 50.59351 | 20.73268 | 23828 ft | 428 kts | 8° |
| 2026-05-06 12:25 | 50.62044 | 20.74037 | 23378 ft | 426 kts | 8° |
| 2026-05-06 12:25 | 50.64005 | 20.74597 | 22986 ft | 425 kts | 8° |
| 2026-05-06 12:25 | 50.66657 | 20.75355 | 22498 ft | 423 kts | 8° |
| 2026-05-06 12:26 | 50.69306 | 20.76115 | 22046 ft | 420 kts | 8° |
| 2026-05-06 12:26 | 50.71728 | 20.76810 | 21629 ft | 417 kts | 8° |
| 2026-05-06 12:26 | 50.74023 | 20.77468 | 21251 ft | 415 kts | 8° |
| 2026-05-06 12:26 | 50.76341 | 20.78135 | 20863 ft | 413 kts | 8° |
| 2026-05-06 12:27 | 50.78942 | 20.78883 | 20430 ft | 410 kts | 8° |
| 2026-05-06 12:27 | 50.81596 | 20.79648 | 19980 ft | 408 kts | 8° |
| 2026-05-06 12:27 | 50.83887 | 20.80308 | 19603 ft | 406 kts | 8° |
| 2026-05-06 12:27 | 50.86223 | 20.80982 | 19215 ft | 405 kts | 8° |
| 2026-05-06 12:28 | 50.88422 | 20.81617 | 18855 ft | 403 kts | 8° |
| 2026-05-06 12:28 | 50.90719 | 20.82282 | 18477 ft | 402 kts | 8° |
| 2026-05-06 12:28 | 50.92930 | 20.82921 | 18079 ft | 401 kts | 8° |
| 2026-05-06 12:28 | 50.95022 | 20.83526 | 17675 ft | 400 kts | 8° |
| 2026-05-06 12:29 | 50.97253 | 20.84173 | 17256 ft | 399 kts | 8° |
| 2026-05-06 12:29 | 50.99972 | 20.84963 | 16785 ft | 396 kts | 8° |
| 2026-05-06 12:29 | 51.02479 | 20.85692 | 16355 ft | 393 kts | 7° |
| 2026-05-06 12:29 | 51.02817 | 20.85790 | 16302 ft | 393 kts | 7° |
| 2026-05-06 12:30 | 51.04348 | 20.86236 | 16039 ft | 391 kts | 8° |
| 2026-05-06 12:30 | 51.06608 | 20.86894 | 15658 ft | 389 kts | 8° |
| 2026-05-06 12:30 | 51.08939 | 20.87573 | 15260 ft | 387 kts | 8° |
| 2026-05-06 12:30 | 51.11287 | 20.88258 | 14863 ft | 384 kts | 8° |
| 2026-05-06 12:31 | 51.13366 | 20.88865 | 14516 ft | 382 kts | 8° |
| 2026-05-06 12:31 | 51.15950 | 20.89620 | 14080 ft | 380 kts | 8° |
| 2026-05-06 12:31 | 51.18357 | 20.90324 | 13666 ft | 378 kts | 8° |
| 2026-05-06 12:31 | 51.20805 | 20.91041 | 13201 ft | 377 kts | 8° |
| 2026-05-06 12:32 | 51.23115 | 20.91718 | 12773 ft | 375 kts | 8° |
| 2026-05-06 12:32 | 51.25658 | 20.92465 | 12322 ft | 372 kts | 7° |
| 2026-05-06 12:32 | 51.28190 | 20.93209 | 11872 ft | 369 kts | 7° |
| 2026-05-06 12:32 | 51.30683 | 20.93943 | 11437 ft | 366 kts | 7° |
| 2026-05-06 12:33 | 51.33137 | 20.94667 | 11018 ft | 364 kts | 7° |
| 2026-05-06 12:33 | 51.34127 | 20.94958 | 10846 ft | 363 kts | 7° |
| 2026-05-06 12:33 | 51.35142 | 20.95258 | 10708 ft | 361 kts | 7° |
| 2026-05-06 12:33 | 51.37116 | 20.95842 | 10594 ft | 352 kts | 7° |
| 2026-05-06 12:34 | 51.39438 | 20.96529 | 10444 ft | 343 kts | 7° |
| 2026-05-06 12:34 | 51.41711 | 20.97203 | 10303 ft | 333 kts | 7° |
| 2026-05-06 12:34 | 51.43906 | 20.97854 | 10165 ft | 325 kts | 7° |
| 2026-05-06 12:34 | 51.46054 | 20.98491 | 10042 ft | 316 kts | 7° |
| 2026-05-06 12:35 | 51.48173 | 20.99122 | 9892 ft | 302 kts | 7° |
| 2026-05-06 12:35 | 51.49960 | 20.99654 | 9788 ft | 291 kts | 7° |
| 2026-05-06 12:35 | 51.51772 | 21.00192 | 9552 ft | 286 kts | 6° |
| 2026-05-06 12:35 | 51.53669 | 21.00755 | 9270 ft | 281 kts | 6° |
| 2026-05-06 12:36 | 51.55475 | 21.01291 | 9010 ft | 276 kts | 6° |
| 2026-05-06 12:36 | 51.57343 | 21.01846 | 8751 ft | 271 kts | 6° |
| 2026-05-06 12:36 | 51.59147 | 21.02381 | 8516 ft | 271 kts | 6° |
| 2026-05-06 12:36 | 51.61012 | 21.02934 | 8279 ft | 274 kts | 7° |
| 2026-05-06 12:37 | 51.62920 | 21.03499 | 8026 ft | 283 kts | 7° |
| 2026-05-06 12:37 | 51.64873 | 21.04080 | 7747 ft | 286 kts | 7° |
| 2026-05-06 12:37 | 51.66808 | 21.04660 | 7456 ft | 280 kts | 7° |
| 2026-05-06 12:37 | 51.68704 | 21.05230 | 7188 ft | 275 kts | 7° |
| 2026-05-06 12:38 | 51.70573 | 21.05791 | 6921 ft | 272 kts | 7° |
| 2026-05-06 12:38 | 51.72432 | 21.06348 | 6664 ft | 271 kts | 7° |
| 2026-05-06 12:38 | 51.74262 | 21.06899 | 6571 ft | 263 kts | 7° |
| 2026-05-06 12:38 | 51.76067 | 21.07440 | 6347 ft | 266 kts | 7° |
| 2026-05-06 12:39 | 51.77904 | 21.07990 | 6116 ft | 272 kts | 7° |
| 2026-05-06 12:39 | 51.79781 | 21.08552 | 5861 ft | 278 kts | 7° |
| 2026-05-06 12:39 | 51.81678 | 21.09124 | 5578 ft | 277 kts | 7° |
| 2026-05-06 12:39 | 51.83567 | 21.09693 | 5333 ft | 275 kts | 7° |
| 2026-05-06 12:40 | 51.85428 | 21.10256 | 5193 ft | 268 kts | 8° |
| 2026-05-06 12:40 | 51.87237 | 21.10804 | 5074 ft | 261 kts | 7° |
| 2026-05-06 12:40 | 51.89002 | 21.11338 | 4954 ft | 255 kts | 7° |
| 2026-05-06 12:40 | 51.90722 | 21.11858 | 4841 ft | 248 kts | 7° |
| 2026-05-06 12:41 | 51.92392 | 21.12363 | 4719 ft | 242 kts | 7° |
| 2026-05-06 12:41 | 51.94047 | 21.12864 | 4484 ft | 241 kts | 8° |
| 2026-05-06 12:41 | 51.95689 | 21.13360 | 4263 ft | 240 kts | 7° |
| 2026-05-06 12:41 | 51.97330 | 21.13467 | 3994 ft | 234 kts | 339° |
| 2026-05-06 12:42 | 51.98723 | 21.12341 | 3836 ft | 225 kts | 324° |
| 2026-05-06 12:42 | 52.00089 | 21.11127 | 3711 ft | 225 kts | 328° |
| 2026-05-06 12:42 | 52.01487 | 21.09939 | 3417 ft | 228 kts | 328° |
| 2026-05-06 12:42 | 52.02882 | 21.08727 | 3119 ft | 226 kts | 328° |
| 2026-05-06 12:43 | 52.04248 | 21.07528 | 2834 ft | 220 kts | 327° |
| 2026-05-06 12:43 | 52.05578 | 21.06358 | 2551 ft | 215 kts | 327° |
| 2026-05-06 12:43 | 52.06873 | 21.05224 | 2252 ft | 205 kts | 326° |
| 2026-05-06 12:43 | 52.08070 | 21.04175 | 2000 ft | 186 kts | 327° |
| 2026-05-06 12:44 | 52.09151 | 21.03227 | 1792 ft | 169 kts | 325° |
| 2026-05-06 12:44 | 52.10150 | 21.02349 | 1562 ft | 159 kts | 324° |
| 2026-05-06 12:44 | 52.11108 | 21.01504 | 1374 ft | 157 kts | 325° |
| 2026-05-06 12:44 | 52.12088 | 21.00643 | 1153 ft | 161 kts | 327° |
| 2026-05-06 12:45 | 52.13066 | 20.99789 | 936 ft | 161 kts | 325° |
| 2026-05-06 12:45 | 52.14049 | 20.98925 | 714 ft | 160 kts | 326° |
| 2026-05-06 12:45 | 52.15969 | 20.97246 | 345 ft | 146 kts | 325° |
| 2026-05-06 12:46 | 52.16644 | 20.96651 | 338 ft | 58 kts | 332° |
| 2026-05-06 12:46 | 52.16860 | 20.96519 | 337 ft | 27 kts | 352° |
| 2026-05-06 12:46 | 52.17029 | 20.96514 | 336 ft | 12 kts | 1° |
| 2026-05-06 12:46 | 52.17083 | 20.96553 | 334 ft | 6 kts | 55° |
| 2026-05-06 12:47 | 52.17083 | 20.96555 | 334 ft | 0 kts | 56° |
| 2026-05-06 12:48 | 52.17087 | 20.96564 | 337 ft | 3 kts | 56° |
| 2026-05-06 12:48 | 52.17107 | 20.96618 | 335 ft | 9 kts | 61° |
| 2026-05-06 12:48 | 52.17142 | 20.96726 | 336 ft | 6 kts | 62° |
| 2026-05-06 12:49 | 52.17144 | 20.96732 | 336 ft | 0 kts | 62° |
| 2026-05-06 12:49 | 52.17144 | 20.96730 | 336 ft | 2 kts | 62° |
| 2026-05-06 12:49 | 52.17115 | 20.96628 | 336 ft | 10 kts | 100° |
| 2026-05-06 12:49 | 52.17089 | 20.96658 | 338 ft | 13 kts | 146° |
| 2026-05-06 12:50 | 52.16965 | 20.96768 | 335 ft | 17 kts | 148° |
| 2026-05-06 12:50 | 52.16940 | 20.96921 | 337 ft | 13 kts | 89° |
| 2026-05-06 12:50 | 52.16950 | 20.97013 | 336 ft | 5 kts | 121° |
| 2026-05-06 12:50 | 52.16925 | 20.97044 | 338 ft | 3 kts | 140° |
| 2026-05-06 12:51 | 52.16926 | 20.97075 | 338 ft | 3 kts | 59° |
| 2026-05-06 12:51 | 52.16938 | 20.97111 | 334 ft | 4 kts | 66° |
| 2026-05-06 12:51 | 52.16945 | 20.97138 | 334 ft | 1 kts | 67° |
| 2026-05-06 12:51 | 52.16953 | 20.97174 | 336 ft | 0 kts | 68° |
| 2026-05-06 12:52 | 52.16955 | 20.97182 | 336 ft | 1 kts | 68° |
| 2026-05-06 12:52 | 52.16957 | 20.97189 | 337 ft | 0 kts | 68° |